Terminal Aerodrome Forecast
Issued by NWS Grand Forks, ND

Home | Current Version | Previous Version | Text Only | Print | Product List | Glossary On
Versions: 1 2 3 4 5 6 7 8 9 10 11 12 13 14
736
FTUS43 KFGF 191721 AAB
TAFGFK
TAF AMD
KGFK 191721Z 1917/2018 18015KT 4SM BR SCT005
      TEMPO 1918/1921 P6SM NSW OVC010
     FM192200 18013KT P6SM BKN060
     FM200200 18009KT 3SM BR BKN010
     FM200700 18009KT 3SM -FZDZ BR BKN010
     FM201200 16008KT P6SM BKN003=

USA.gov is the U.S. government's official web portal to all federal, state and local government web resources and services.